Historyczne dane pomiarowe

Dodano dane terminowe – wersja testowa.

Dane z okresu 1951-2019

Wersja bazy: 1.34 [2019-03-16, lista zmian], aktualizacja planowana na 2019-04-15

Dane meteo z obszaru Polski uzyskane na podstawie danych udostępnionych przez Instytut Meteorologii i Gospodarki Wodnej – Państwowy Instytut Badawczy.

 

Wybierz Datę:    

       

TemperaturaWilgotnośćWiatrCiśnienieOpadyŚniegCzas trwania zjawisk
 Stacja t tx tn tng RH VA  wxwx mslp ppp RRR   cm mm wxwxwxwxwxwxwx
1983-08-14 14.1 19.0 7.8- 74.0- 1.0 2.0---- 0.0------------
1983-08-13 15.7 22.0 12.0- 83.0- 3.0 9.7---- 4.1------------
1983-08-12 18.3 22.0 13.0- 72.0- 2.3 6.0---- 4.0------------
1983-08-11 20.7 27.1 15.0- 71.5- 0.3 1.3---- 0.0------------
1983-08-10 20.2 27.4 14.8- 73.8- 0.0 5.0---- 0.0------------
1983-08-09 20.1 25.8 14.8- 76.8- 1.0 7.0---- 0.0------------
1983-08-08 18.6 24.0 15.4- 87.3- 1.0 7.7---- 0.0------------
1983-08-07 18.6 23.0 15.3- 84.3- 4.0 4.7---- 0.0------------
1983-08-06 16.4 22.6 9.3- 80.3- 2.7 4.0---- 0.0------------
1983-08-05 14.8 17.8 12.4- 88.8- 6.0 1.0---- 0.1------------
1983-08-04 16.4 17.8 14.3- 92.3- 6.0 0.7---- 3.7------------
1983-08-03 15.8 17.6 13.5- 92.5- 6.0 11.3---- 15.8------------
1983-08-02 20.5 26.8 15.4- 73.3- 2.7 4.0---- 17.8------------
1983-08-01 21.8 30.3 9.3- 58.3- 0.3 4.3---- 0.0------------
1983-07-31 19.0 25.7 11.2 7.0 73.5- 1.7 1.7---- 0.0------------
1983-07-30 18.2 20.3 15.9 14.8 71.3- 2.7 8.3---- 0.0------------
1983-07-29 19.2 24.1 13.3 9.0 67.0- 1.7 1.3---- 0.0------------
1983-07-28 20.8 26.3 16.6 13.5 68.0- 2.7 2.7---- 0.0------------
1983-07-27 21.3 30.5 10.2 6.3 66.5- 2.0 0.0---- 0.0------------
1983-07-26 20.2 26.2 12.6 12.4 65.3- 0.0 3.0---- 0.0------------
1983-07-25 17.7 23.7 12.8 8.3 77.8- 0.7 6.7---- 0.0------------
1983-07-24 18.0 22.5 15.1 13.6 82.0- 2.3 4.3---- 0.0------------
1983-07-23 17.9 20.7 14.8 7.6 77.3- 4.0 6.7---- 0.2------------
1983-07-22 16.7 21.5 8.8 7.5 65.8- 1.7 5.3---- 0.0------------
1983-07-21 14.8 20.0 9.0 9.4 64.5- 2.7 3.0---- 0.0------------
1983-07-20 14.6 19.0 10.3 6.3 78.0- 5.3 2.7---- 0.0------------
1983-07-19 18.9 25.4 16.6 14.5 76.5- 4.3 5.7---- 0.0------------
1983-07-18 21.8 30.7 8.8 5.0 76.3- 1.0 4.3---- 23.0------------
1983-07-17 17.8 24.5 10.5 11.2 74.8- 1.3 4.7---- 0.0------------
1983-07-16 20.1 24.2 15.6 13.7 68.0- 0.7 4.7---- 0.0------------
1983-07-15 19.3 26.5 9.3 5.5 66.8- 1.0 3.7---- 0.0------------
1983-07-14 18.9 22.0 13.1 16.0 68.0- 1.3 8.3---- 0.0------------
1983-07-13 20.3 27.2 14.5 11.5 82.3- 3.0 3.3---- 0.0------------
1983-07-12 21.7 27.4 15.0 15.0 65.0- 1.3 8.0---- 0.0------------
1983-07-11 21.1 27.4 14.9 10.7 68.8- 2.3 5.0---- 0.0------------
1983-07-10 21.6 28.0 14.1 9.5 64.5- 0.3 5.0---- 0.0------------
1983-07-09 19.3 25.5 13.0 7.0 72.0- 1.0 4.7---- 0.0------------
1983-07-08 17.7 23.5 11.6 9.0 73.5- 0.7 5.7---- 0.0------------
1983-07-07 17.8 22.6 11.8 7.0 67.8- 0.0 6.0---- 0.0------------
1983-07-06 18.3 25.5 10.0 6.8 68.5- 0.0 2.7---- 0.0------------
1983-07-05 17.6 25.0 11.5 9.5 73.3- 1.0 2.7---- 0.0------------
1983-07-04 16.0 22.2 9.8 8.5 76.3- 3.0 3.0---- 0.0------------
1983-07-03 17.1 23.2 11.6 7.8 75.8- 1.0 2.7---- 0.0------------
1983-07-02 16.3 20.3 12.8 7.8 77.3- 1.3 4.0---- 0.0------------
1983-07-01 19.1 27.2 12.0 7.5 70.5- 1.0 4.3---- 1.6------------
1983-06-30 19.3 25.0 11.8 9.2 61.5- 2.0 5.0---- 0.0------------
1983-06-29 14.4 20.0 8.5 5.2 67.3- 1.7 4.0---- 0.0------------
1983-06-28 15.2 19.0 12.3 11.4 75.5- 3.7 2.0---- 2.6------------
1983-06-27 16.2 22.6 10.2 5.5 83.5- 3.7 2.7---- 9.1------------
1983-06-26 16.1 22.5 9.8 7.5 73.8- 1.7 3.3---- 0.0------------
1983-06-25 18.0 25.4 10.6 6.2 72.0- 1.7 0.0---- 0.0------------
1983-06-24 17.7 27.0 7.8 2.5 63.8- 0.0 0.0---- 0.0------------
1983-06-23 14.2 22.8 4.7 -0.4 65.0- 0.0 1.0---- 0.0------------
1983-06-22 12.3 22.8 6.7 2.9 69.0- 0.7 2.0---- 0.0------------
1983-06-21 14.2 21.7 8.4 6.5 67.3- 2.7 9.7---- 0.0------------
1983-06-20 17.1 22.7 9.2 5.7 68.8- 0.3 7.0---- 0.0------------
1983-06-19 15.0 18.8 11.3 10.5 69.3- 0.3 14.7---- 0.0------------
1983-06-18 13.2 15.3 11.5 10.2 85.8- 5.3 6.7---- 0.0------------
1983-06-17 13.9 20.4 7.5 1.9 78.0- 1.7 7.0---- 0.0------------
1983-06-16 14.0 18.0 11.6 10.0 70.0- 3.3 8.7---- 0.0------------
410.9 ms

 

Źródłem pochodzenia danych jest Instytut Meteorologii i Gospodarki Wodnej – Państwowy Instytut Badawczy. Dane Instytutu Meteorologii i Gospodarki Wodnej – Państwowego Instytutu Badawczego zostały przetworzone.

Dane źródłowe można odnaleźć na stronie https://dane.imgw.pl